sensor_id;sensor_type;location;lat;lon;timestamp;P1;durP1;ratioP1;P2;durP2;ratioP2
13720;SDS011;6932;51.438;5.470;2023-03-31T00:01:33;3.43;;;1.50;;
13720;SDS011;6932;51.438;5.470;2023-03-31T00:03:59;3.33;;;1.40;;
13720;SDS011;6932;51.438;5.470;2023-03-31T00:06:29;4.50;;;1.40;;
13720;SDS011;6932;51.438;5.470;2023-03-31T00:09:02;5.90;;;1.53;;
13720;SDS011;6932;51.438;5.470;2023-03-31T00:11:30;4.40;;;1.80;;
13720;SDS011;6932;51.438;5.470;2023-03-31T00:17:36;3.77;;;1.27;;
13720;SDS011;6932;51.438;5.470;2023-03-31T00:20:02;2.60;;;1.30;;
13720;SDS011;6932;51.438;5.470;2023-03-31T00:22:29;3.23;;;1.40;;
13720;SDS011;6932;51.438;5.470;2023-03-31T00:24:55;3.47;;;1.50;;
13720;SDS011;6932;51.438;5.470;2023-03-31T00:27:21;4.13;;;1.60;;
13720;SDS011;6932;51.438;5.470;2023-03-31T00:29:47;4.00;;;1.47;;
13720;SDS011;6932;51.438;5.470;2023-03-31T00:32:14;5.13;;;1.30;;
13720;SDS011;6932;51.438;5.470;2023-03-31T00:34:40;5.00;;;1.50;;
13720;SDS011;6932;51.438;5.470;2023-03-31T00:37:06;3.50;;;1.47;;
13720;SDS011;6932;51.438;5.470;2023-03-31T00:39:33;3.30;;;1.27;;
13720;SDS011;6932;51.438;5.470;2023-03-31T00:42:01;6.00;;;1.60;;
13720;SDS011;6932;51.438;5.470;2023-03-31T00:44:29;3.77;;;1.50;;
13720;SDS011;6932;51.438;5.470;2023-03-31T00:49:47;3.97;;;1.30;;
13720;SDS011;6932;51.438;5.470;2023-03-31T00:52:26;5.70;;;1.37;;
13720;SDS011;6932;51.438;5.470;2023-03-31T00:55:02;4.33;;;1.30;;
13720;SDS011;6932;51.438;5.470;2023-03-31T00:57:35;4.90;;;1.37;;
13720;SDS011;6932;51.438;5.470;2023-03-31T01:00:05;3.60;;;1.43;;
13720;SDS011;6932;51.438;5.470;2023-03-31T01:02:47;2.93;;;1.23;;
13720;SDS011;6932;51.438;5.470;2023-03-31T01:05:21;4.37;;;1.50;;
13720;SDS011;6932;51.438;5.470;2023-03-31T01:07:58;3.83;;;1.50;;
13720;SDS011;6932;51.438;5.470;2023-03-31T01:10:26;3.00;;;1.20;;
13720;SDS011;6932;51.438;5.470;2023-03-31T01:12:56;5.73;;;1.40;;
13720;SDS011;6932;51.438;5.470;2023-03-31T01:15:22;5.30;;;1.50;;
13720;SDS011;6932;51.438;5.470;2023-03-31T01:17:48;4.53;;;1.53;;
13720;SDS011;6932;51.438;5.470;2023-03-31T01:33:59;4.20;;;1.63;;
13720;SDS011;6932;51.438;5.470;2023-03-31T02:07:33;6.77;;;1.83;;
13720;SDS011;6932;51.438;5.470;2023-03-31T02:10:30;5.67;;;2.07;;
13720;SDS011;6932;51.438;5.470;2023-03-31T02:12:59;6.33;;;2.00;;
13720;SDS011;6932;51.438;5.470;2023-03-31T02:15:27;6.47;;;2.00;;
13720;SDS011;6932;51.438;5.470;2023-03-31T02:18:02;5.20;;;1.80;;
13720;SDS011;6932;51.438;5.470;2023-03-31T02:20:35;8.23;;;1.93;;
13720;SDS011;6932;51.438;5.470;2023-03-31T02:23:10;5.27;;;1.60;;
13720;SDS011;6932;51.438;5.470;2023-03-31T02:40:32;5.60;;;1.80;;
13720;SDS011;6932;51.438;5.470;2023-03-31T02:42:58;3.67;;;1.60;;
13720;SDS011;6932;51.438;5.470;2023-03-31T02:54:14;7.00;;;1.90;;
13720;SDS011;6932;51.438;5.470;2023-03-31T02:57:12;6.23;;;1.87;;
13720;SDS011;6932;51.438;5.470;2023-03-31T03:13:51;6.53;;;1.80;;
13720;SDS011;6932;51.438;5.470;2023-03-31T03:16:48;6.30;;;1.87;;
13720;SDS011;6932;51.438;5.470;2023-03-31T03:19:49;7.53;;;1.97;;
13720;SDS011;6932;51.438;5.470;2023-03-31T03:22:18;6.00;;;1.70;;
13720;SDS011;6932;51.438;5.470;2023-03-31T03:24:45;5.70;;;1.60;;
13720;SDS011;6932;51.438;5.470;2023-03-31T03:27:11;6.50;;;1.90;;
13720;SDS011;6932;51.438;5.470;2023-03-31T03:29:36;4.67;;;1.60;;
13720;SDS011;6932;51.438;5.470;2023-03-31T03:32:02;5.40;;;1.60;;
13720;SDS011;6932;51.438;5.470;2023-03-31T03:34:28;5.53;;;1.73;;
13720;SDS011;6932;51.438;5.470;2023-03-31T03:36:54;5.90;;;1.70;;
13720;SDS011;6932;51.438;5.470;2023-03-31T03:39:19;4.17;;;1.77;;
13720;SDS011;6932;51.438;5.470;2023-03-31T03:41:45;8.07;;;2.07;;
13720;SDS011;6932;51.438;5.470;2023-03-31T03:47:52;5.27;;;1.63;;
13720;SDS011;6932;51.438;5.470;2023-03-31T03:50:18;5.53;;;1.60;;
13720;SDS011;6932;51.438;5.470;2023-03-31T03:52:43;3.97;;;1.43;;
13720;SDS011;6932;51.438;5.470;2023-03-31T03:55:09;5.37;;;1.40;;
13720;SDS011;6932;51.438;5.470;2023-03-31T03:57:36;3.93;;;1.40;;
13720;SDS011;6932;51.438;5.470;2023-03-31T04:00:04;4.63;;;1.40;;
13720;SDS011;6932;51.438;5.470;2023-03-31T04:05:49;4.67;;;1.73;;
13720;SDS011;6932;51.438;5.470;2023-03-31T04:08:16;7.83;;;1.60;;
13720;SDS011;6932;51.438;5.470;2023-03-31T04:10:46;5.13;;;1.60;;
13720;SDS011;6932;51.438;5.470;2023-03-31T04:13:14;4.17;;;1.37;;
13720;SDS011;6932;51.438;5.470;2023-03-31T04:15:41;6.27;;;1.57;;
13720;SDS011;6932;51.438;5.470;2023-03-31T04:18:07;6.13;;;1.37;;
13720;SDS011;6932;51.438;5.470;2023-03-31T04:27:54;5.40;;;1.70;;
13720;SDS011;6932;51.438;5.470;2023-03-31T04:30:21;4.07;;;1.30;;
13720;SDS011;6932;51.438;5.470;2023-03-31T04:32:55;3.93;;;1.20;;
13720;SDS011;6932;51.438;5.470;2023-03-31T04:39:05;4.57;;;1.40;;
13720;SDS011;6932;51.438;5.470;2023-03-31T04:41:34;3.37;;;1.30;;
13720;SDS011;6932;51.438;5.470;2023-03-31T04:58:54;4.30;;;1.33;;
13720;SDS011;6932;51.438;5.470;2023-03-31T05:01:20;6.30;;;1.60;;
13720;SDS011;6932;51.438;5.470;2023-03-31T05:03:46;4.87;;;1.23;;
13720;SDS011;6932;51.438;5.470;2023-03-31T05:09:52;2.77;;;1.10;;
13720;SDS011;6932;51.438;5.470;2023-03-31T05:12:18;4.27;;;1.30;;
13720;SDS011;6932;51.438;5.470;2023-03-31T05:14:44;4.83;;;1.70;;
13720;SDS011;6932;51.438;5.470;2023-03-31T05:17:13;3.80;;;1.53;;
13720;SDS011;6932;51.438;5.470;2023-03-31T05:23:31;2.73;;;1.20;;
13720;SDS011;6932;51.438;5.470;2023-03-31T05:25:57;3.20;;;1.10;;
13720;SDS011;6932;51.438;5.470;2023-03-31T05:28:23;2.33;;;1.23;;
13720;SDS011;6932;51.438;5.470;2023-03-31T05:30:49;4.23;;;1.40;;
13720;SDS011;6932;51.438;5.470;2023-03-31T05:33:14;4.57;;;1.30;;
13720;SDS011;6932;51.438;5.470;2023-03-31T05:35:40;3.43;;;1.20;;
13720;SDS011;6932;51.438;5.470;2023-03-31T05:38:06;4.10;;;1.33;;
13720;SDS011;6932;51.438;5.470;2023-03-31T05:40:32;2.90;;;1.27;;
13720;SDS011;6932;51.438;5.470;2023-03-31T05:50:28;3.30;;;1.20;;
13720;SDS011;6932;51.438;5.470;2023-03-31T05:52:54;3.80;;;1.33;;
13720;SDS011;6932;51.438;5.470;2023-03-31T05:55:21;3.30;;;1.20;;
13720;SDS011;6932;51.438;5.470;2023-03-31T05:57:47;2.90;;;1.10;;
13720;SDS011;6932;51.438;5.470;2023-03-31T06:00:13;3.50;;;1.50;;
13720;SDS011;6932;51.438;5.470;2023-03-31T06:02:39;2.07;;;1.20;;
13720;SDS011;6932;51.438;5.470;2023-03-31T06:05:05;2.83;;;1.17;;
13720;SDS011;6932;51.438;5.470;2023-03-31T06:07:31;2.67;;;1.10;;
13720;SDS011;6932;51.438;5.470;2023-03-31T06:24:50;3.80;;;1.30;;
13720;SDS011;6932;51.438;5.470;2023-03-31T06:27:16;4.03;;;1.53;;
13720;SDS011;6932;51.438;5.470;2023-03-31T06:29:42;4.77;;;1.53;;
13720;SDS011;6932;51.438;5.470;2023-03-31T06:32:07;4.73;;;1.50;;
13720;SDS011;6932;51.438;5.470;2023-03-31T06:34:33;4.87;;;1.70;;
13720;SDS011;6932;51.438;5.470;2023-03-31T06:36:59;4.43;;;1.50;;
13720;SDS011;6932;51.438;5.470;2023-03-31T06:39:25;5.13;;;1.90;;
13720;SDS011;6932;51.438;5.470;2023-03-31T06:41:51;5.73;;;1.40;;
13720;SDS011;6932;51.438;5.470;2023-03-31T06:44:16;4.37;;;1.70;;
13720;SDS011;6932;51.438;5.470;2023-03-31T06:46:43;4.17;;;1.50;;
13720;SDS011;6932;51.438;5.470;2023-03-31T06:49:09;5.37;;;1.50;;
13720;SDS011;6932;51.438;5.470;2023-03-31T06:51:35;5.73;;;1.63;;
13720;SDS011;6932;51.438;5.470;2023-03-31T06:54:00;6.67;;;1.70;;
13720;SDS011;6932;51.438;5.470;2023-03-31T06:56:26;4.37;;;1.40;;
13720;SDS011;6932;51.438;5.470;2023-03-31T06:58:52;4.53;;;1.70;;
13720;SDS011;6932;51.438;5.470;2023-03-31T07:01:18;7.13;;;2.10;;
13720;SDS011;6932;51.438;5.470;2023-03-31T07:23:27;4.50;;;1.87;;
13720;SDS011;6932;51.438;5.470;2023-03-31T07:25:53;6.50;;;1.87;;
13720;SDS011;6932;51.438;5.470;2023-03-31T07:28:18;5.47;;;2.10;;
13720;SDS011;6932;51.438;5.470;2023-03-31T07:30:44;6.03;;;2.10;;
13720;SDS011;6932;51.438;5.470;2023-03-31T07:33:10;6.53;;;1.93;;
13720;SDS011;6932;51.438;5.470;2023-03-31T07:35:37;4.57;;;1.60;;
13720;SDS011;6932;51.438;5.470;2023-03-31T07:38:07;6.47;;;1.80;;
13720;SDS011;6932;51.438;5.470;2023-03-31T07:40:34;6.10;;;1.83;;
13720;SDS011;6932;51.438;5.470;2023-03-31T07:43:00;6.67;;;1.80;;
13720;SDS011;6932;51.438;5.470;2023-03-31T07:45:26;5.10;;;1.90;;
13720;SDS011;6932;51.438;5.470;2023-03-31T07:47:52;5.43;;;1.93;;
13720;SDS011;6932;51.438;5.470;2023-03-31T07:50:19;5.20;;;1.90;;
13720;SDS011;6932;51.438;5.470;2023-03-31T07:52:46;7.10;;;2.20;;
13720;SDS011;6932;51.438;5.470;2023-03-31T07:55:12;6.97;;;2.10;;
13720;SDS011;6932;51.438;5.470;2023-03-31T07:57:51;7.90;;;2.47;;
13720;SDS011;6932;51.438;5.470;2023-03-31T08:03:30;4.43;;;1.90;;
13720;SDS011;6932;51.438;5.470;2023-03-31T08:09:37;8.43;;;2.20;;
13720;SDS011;6932;51.438;5.470;2023-03-31T08:12:04;9.23;;;2.20;;
13720;SDS011;6932;51.438;5.470;2023-03-31T08:14:30;8.60;;;2.60;;
13720;SDS011;6932;51.438;5.470;2023-03-31T08:20:37;7.23;;;2.20;;
13720;SDS011;6932;51.438;5.470;2023-03-31T08:23:03;6.73;;;2.43;;
13720;SDS011;6932;51.438;5.470;2023-03-31T08:25:32;7.53;;;2.10;;
13720;SDS011;6932;51.438;5.470;2023-03-31T08:27:58;8.27;;;2.37;;
13720;SDS011;6932;51.438;5.470;2023-03-31T08:30:24;6.33;;;2.10;;
13720;SDS011;6932;51.438;5.470;2023-03-31T08:32:50;6.20;;;2.30;;
13720;SDS011;6932;51.438;5.470;2023-03-31T08:35:16;6.90;;;2.20;;
13720;SDS011;6932;51.438;5.470;2023-03-31T08:37:42;6.13;;;2.10;;
13720;SDS011;6932;51.438;5.470;2023-03-31T08:40:11;7.37;;;2.13;;
13720;SDS011;6932;51.438;5.470;2023-03-31T08:42:46;4.70;;;1.97;;
13720;SDS011;6932;51.438;5.470;2023-03-31T08:48:06;9.53;;;2.27;;
13720;SDS011;6932;51.438;5.470;2023-03-31T08:50:43;8.67;;;2.60;;
13720;SDS011;6932;51.438;5.470;2023-03-31T08:56:15;8.60;;;2.40;;
13720;SDS011;6932;51.438;5.470;2023-03-31T08:58:46;6.60;;;2.10;;
13720;SDS011;6932;51.438;5.470;2023-03-31T09:01:18;9.10;;;2.50;;
13720;SDS011;6932;51.438;5.470;2023-03-31T09:10:19;7.17;;;2.20;;
13720;SDS011;6932;51.438;5.470;2023-03-31T09:16:58;9.03;;;2.33;;
13720;SDS011;6932;51.438;5.470;2023-03-31T09:19:37;7.00;;;2.20;;
13720;SDS011;6932;51.438;5.470;2023-03-31T09:25:52;10.87;;;2.70;;
13720;SDS011;6932;51.438;5.470;2023-03-31T09:28:21;8.47;;;2.27;;
13720;SDS011;6932;51.438;5.470;2023-03-31T09:31:04;7.27;;;2.10;;
13720;SDS011;6932;51.438;5.470;2023-03-31T09:55:52;6.57;;;1.73;;
13720;SDS011;6932;51.438;5.470;2023-03-31T09:58:20;6.93;;;2.30;;
13720;SDS011;6932;51.438;5.470;2023-03-31T10:00:59;5.90;;;1.80;;
13720;SDS011;6932;51.438;5.470;2023-03-31T10:03:32;6.03;;;1.83;;
13720;SDS011;6932;51.438;5.470;2023-03-31T10:06:15;5.77;;;1.90;;
13720;SDS011;6932;51.438;5.470;2023-03-31T10:11:29;6.13;;;1.73;;
13720;SDS011;6932;51.438;5.470;2023-03-31T10:17:46;5.87;;;1.63;;
13720;SDS011;6932;51.438;5.470;2023-03-31T10:20:32;6.13;;;1.70;;
13720;SDS011;6932;51.438;5.470;2023-03-31T10:23:03;6.20;;;1.73;;
13720;SDS011;6932;51.438;5.470;2023-03-31T10:25:41;7.13;;;2.00;;
13720;SDS011;6932;51.438;5.470;2023-03-31T10:28:11;6.20;;;1.60;;
13720;SDS011;6932;51.438;5.470;2023-03-31T10:30:46;7.20;;;2.00;;
13720;SDS011;6932;51.438;5.470;2023-03-31T10:33:16;5.90;;;1.90;;
13720;SDS011;6932;51.438;5.470;2023-03-31T10:35:55;5.27;;;1.60;;
13720;SDS011;6932;51.438;5.470;2023-03-31T10:38:28;7.17;;;1.93;;
13720;SDS011;6932;51.438;5.470;2023-03-31T10:41:06;7.07;;;2.00;;
13720;SDS011;6932;51.438;5.470;2023-03-31T10:46:05;5.43;;;1.70;;
13720;SDS011;6932;51.438;5.470;2023-03-31T10:48:32;6.07;;;1.70;;
13720;SDS011;6932;51.438;5.470;2023-03-31T10:51:18;5.17;;;1.70;;
13720;SDS011;6932;51.438;5.470;2023-03-31T10:53:52;5.73;;;1.80;;
13720;SDS011;6932;51.438;5.470;2023-03-31T11:10:47;6.20;;;2.10;;
13720;SDS011;6932;51.438;5.470;2023-03-31T11:14:00;6.43;;;2.10;;
13720;SDS011;6932;51.438;5.470;2023-03-31T11:17:15;6.57;;;2.10;;
13720;SDS011;6932;51.438;5.470;2023-03-31T11:24:00;7.37;;;2.00;;
13720;SDS011;6932;51.438;5.470;2023-03-31T11:29:40;6.10;;;1.83;;
13720;SDS011;6932;51.438;5.470;2023-03-31T11:35:56;7.93;;;2.20;;
13720;SDS011;6932;51.438;5.470;2023-03-31T11:41:47;7.43;;;2.37;;
13720;SDS011;6932;51.438;5.470;2023-03-31T11:48:09;6.30;;;1.77;;
13720;SDS011;6932;51.438;5.470;2023-03-31T11:51:19;7.17;;;2.10;;
13720;SDS011;6932;51.438;5.470;2023-03-31T11:53:59;7.47;;;1.90;;
13720;SDS011;6932;51.438;5.470;2023-03-31T11:56:34;7.40;;;1.90;;
13720;SDS011;6932;51.438;5.470;2023-03-31T12:02:53;6.93;;;1.80;;
13720;SDS011;6932;51.438;5.470;2023-03-31T12:05:26;8.50;;;1.70;;
13720;SDS011;6932;51.438;5.470;2023-03-31T12:08:06;5.87;;;1.63;;
13720;SDS011;6932;51.438;5.470;2023-03-31T12:10:45;4.83;;;1.57;;
13720;SDS011;6932;51.438;5.470;2023-03-31T12:13:39;6.07;;;1.70;;
13720;SDS011;6932;51.438;5.470;2023-03-31T12:16:44;6.53;;;1.73;;
13720;SDS011;6932;51.438;5.470;2023-03-31T12:21:54;6.73;;;1.60;;
13720;SDS011;6932;51.438;5.470;2023-03-31T12:27:39;6.77;;;1.87;;
13720;SDS011;6932;51.438;5.470;2023-03-31T12:30:09;8.30;;;1.90;;
13720;SDS011;6932;51.438;5.470;2023-03-31T12:32:52;6.17;;;1.87;;
13720;SDS011;6932;51.438;5.470;2023-03-31T12:43:55;5.40;;;1.60;;
13720;SDS011;6932;51.438;5.470;2023-03-31T13:15:04;4.37;;;1.60;;
13720;SDS011;6932;51.438;5.470;2023-03-31T13:17:38;4.93;;;1.60;;
13720;SDS011;6932;51.438;5.470;2023-03-31T13:20:15;4.17;;;1.30;;
13720;SDS011;6932;51.438;5.470;2023-03-31T13:26:01;4.17;;;1.33;;
13720;SDS011;6932;51.438;5.470;2023-03-31T13:28:40;4.43;;;1.40;;
13720;SDS011;6932;51.438;5.470;2023-03-31T13:31:11;5.83;;;1.60;;
13720;SDS011;6932;51.438;5.470;2023-03-31T13:39:15;4.93;;;1.50;;
13720;SDS011;6932;51.438;5.470;2023-03-31T14:02:56;3.67;;;1.40;;
13720;SDS011;6932;51.438;5.470;2023-03-31T14:05:46;4.13;;;1.33;;
13720;SDS011;6932;51.438;5.470;2023-03-31T14:08:35;4.37;;;1.73;;
13720;SDS011;6932;51.438;5.470;2023-03-31T14:11:19;4.53;;;1.27;;
13720;SDS011;6932;51.438;5.470;2023-03-31T14:14:02;3.53;;;1.20;;
13720;SDS011;6932;51.438;5.470;2023-03-31T14:29:51;2.17;;;0.90;;
13720;SDS011;6932;51.438;5.470;2023-03-31T14:32:46;3.20;;;1.00;;
13720;SDS011;6932;51.438;5.470;2023-03-31T14:39:11;2.10;;;0.70;;
13720;SDS011;6932;51.438;5.470;2023-03-31T14:41:43;2.73;;;0.70;;
13720;SDS011;6932;51.438;5.470;2023-03-31T14:50:22;2.27;;;0.73;;
13720;SDS011;6932;51.438;5.470;2023-03-31T14:52:59;1.10;;;0.50;;
13720;SDS011;6932;51.438;5.470;2023-03-31T14:55:27;1.57;;;0.87;;
13720;SDS011;6932;51.438;5.470;2023-03-31T14:57:57;0.73;;;0.47;;
13720;SDS011;6932;51.438;5.470;2023-03-31T15:00:26;1.33;;;0.60;;
13720;SDS011;6932;51.438;5.470;2023-03-31T15:10:19;0.70;;;0.40;;
13720;SDS011;6932;51.438;5.470;2023-03-31T15:12:47;0.47;;;0.40;;
13720;SDS011;6932;51.438;5.470;2023-03-31T15:15:15;2.17;;;0.70;;
13720;SDS011;6932;51.438;5.470;2023-03-31T15:25:11;0.97;;;0.57;;
13720;SDS011;6932;51.438;5.470;2023-03-31T15:27:42;1.33;;;0.70;;
13720;SDS011;6932;51.438;5.470;2023-03-31T15:30:22;1.43;;;0.60;;
13720;SDS011;6932;51.438;5.470;2023-03-31T15:32:52;1.23;;;0.50;;
13720;SDS011;6932;51.438;5.470;2023-03-31T15:35:19;2.30;;;0.90;;
13720;SDS011;6932;51.438;5.470;2023-03-31T15:40:47;1.47;;;0.80;;
13720;SDS011;6932;51.438;5.470;2023-03-31T15:43:31;1.60;;;0.80;;
13720;SDS011;6932;51.438;5.470;2023-03-31T15:46:19;0.87;;;0.57;;
13720;SDS011;6932;51.438;5.470;2023-03-31T15:49:19;1.43;;;0.90;;
13720;SDS011;6932;51.438;5.470;2023-03-31T15:51:47;1.17;;;0.80;;
13720;SDS011;6932;51.438;5.470;2023-03-31T15:54:33;1.40;;;0.77;;
13720;SDS011;6932;51.438;5.470;2023-03-31T15:57:04;0.97;;;0.60;;
13720;SDS011;6932;51.438;5.470;2023-03-31T16:21:32;0.77;;;0.60;;
13720;SDS011;6932;51.438;5.470;2023-03-31T16:24:08;0.83;;;0.70;;
13720;SDS011;6932;51.438;5.470;2023-03-31T16:26:35;2.00;;;0.70;;
13720;SDS011;6932;51.438;5.470;2023-03-31T16:29:02;1.17;;;0.60;;
13720;SDS011;6932;51.438;5.470;2023-03-31T16:31:31;2.50;;;1.00;;
13720;SDS011;6932;51.438;5.470;2023-03-31T16:34:05;1.73;;;0.70;;
13720;SDS011;6932;51.438;5.470;2023-03-31T16:36:34;2.70;;;1.17;;
13720;SDS011;6932;51.438;5.470;2023-03-31T16:38:59;1.50;;;0.77;;
13720;SDS011;6932;51.438;5.470;2023-03-31T16:41:29;1.80;;;0.70;;
13720;SDS011;6932;51.438;5.470;2023-03-31T16:43:57;2.00;;;0.70;;
13720;SDS011;6932;51.438;5.470;2023-03-31T16:46:24;1.60;;;0.63;;
13720;SDS011;6932;51.438;5.470;2023-03-31T16:48:50;1.37;;;0.70;;
13720;SDS011;6932;51.438;5.470;2023-03-31T16:51:17;1.17;;;0.67;;
13720;SDS011;6932;51.438;5.470;2023-03-31T16:53:43;1.10;;;0.70;;
13720;SDS011;6932;51.438;5.470;2023-03-31T16:56:11;2.30;;;0.80;;
13720;SDS011;6932;51.438;5.470;2023-03-31T16:58:38;1.33;;;0.80;;
13720;SDS011;6932;51.438;5.470;2023-03-31T17:01:06;1.87;;;0.90;;
13720;SDS011;6932;51.438;5.470;2023-03-31T17:03:34;2.37;;;0.90;;
13720;SDS011;6932;51.438;5.470;2023-03-31T17:06:05;2.20;;;1.03;;
13720;SDS011;6932;51.438;5.470;2023-03-31T17:08:34;2.27;;;0.80;;
13720;SDS011;6932;51.438;5.470;2023-03-31T17:11:03;1.13;;;0.70;;
13720;SDS011;6932;51.438;5.470;2023-03-31T17:13:38;2.73;;;0.93;;
13720;SDS011;6932;51.438;5.470;2023-03-31T17:16:06;1.93;;;0.73;;
13720;SDS011;6932;51.438;5.470;2023-03-31T17:25:54;1.80;;;0.83;;
13720;SDS011;6932;51.438;5.470;2023-03-31T17:28:20;2.20;;;1.00;;
13720;SDS011;6932;51.438;5.470;2023-03-31T17:34:46;3.67;;;1.00;;
13720;SDS011;6932;51.438;5.470;2023-03-31T17:41:03;1.80;;;0.90;;
13720;SDS011;6932;51.438;5.470;2023-03-31T17:43:30;2.87;;;1.20;;
13720;SDS011;6932;51.438;5.470;2023-03-31T17:46:04;2.93;;;1.23;;
13720;SDS011;6932;51.438;5.470;2023-03-31T17:48:33;1.70;;;1.20;;
13720;SDS011;6932;51.438;5.470;2023-03-31T17:51:04;3.63;;;1.00;;
13720;SDS011;6932;51.438;5.470;2023-03-31T17:53:33;2.17;;;0.90;;
13720;SDS011;6932;51.438;5.470;2023-03-31T17:56:00;2.40;;;1.00;;
13720;SDS011;6932;51.438;5.470;2023-03-31T17:58:28;2.10;;;1.00;;
13720;SDS011;6932;51.438;5.470;2023-03-31T18:04:35;3.10;;;1.10;;
13720;SDS011;6932;51.438;5.470;2023-03-31T18:07:01;2.30;;;1.00;;
13720;SDS011;6932;51.438;5.470;2023-03-31T18:09:27;3.73;;;1.50;;
13720;SDS011;6932;51.438;5.470;2023-03-31T18:11:53;2.13;;;1.30;;
13720;SDS011;6932;51.438;5.470;2023-03-31T18:14:19;2.57;;;1.17;;
13720;SDS011;6932;51.438;5.470;2023-03-31T18:16:45;1.93;;;1.10;;
13720;SDS011;6932;51.438;5.470;2023-03-31T18:23:02;3.20;;;1.10;;
13720;SDS011;6932;51.438;5.470;2023-03-31T18:25:28;3.27;;;0.97;;
13720;SDS011;6932;51.438;5.470;2023-03-31T18:27:54;2.77;;;1.00;;
13720;SDS011;6932;51.438;5.470;2023-03-31T18:30:20;3.83;;;1.10;;
13720;SDS011;6932;51.438;5.470;2023-03-31T18:32:46;2.40;;;1.03;;
13720;SDS011;6932;51.438;5.470;2023-03-31T18:35:12;3.97;;;1.20;;
13720;SDS011;6932;51.438;5.470;2023-03-31T18:37:37;3.27;;;1.30;;
13720;SDS011;6932;51.438;5.470;2023-03-31T18:40:03;2.20;;;1.10;;
13720;SDS011;6932;51.438;5.470;2023-03-31T18:42:30;2.63;;;1.20;;
13720;SDS011;6932;51.438;5.470;2023-03-31T18:52:26;3.27;;;1.20;;
13720;SDS011;6932;51.438;5.470;2023-03-31T18:54:52;1.93;;;1.07;;
13720;SDS011;6932;51.438;5.470;2023-03-31T18:57:18;2.23;;;1.00;;
13720;SDS011;6932;51.438;5.470;2023-03-31T18:59:44;3.23;;;1.43;;
13720;SDS011;6932;51.438;5.470;2023-03-31T19:02:11;3.40;;;1.40;;
13720;SDS011;6932;51.438;5.470;2023-03-31T19:04:41;2.40;;;1.20;;
13720;SDS011;6932;51.438;5.470;2023-03-31T19:07:08;2.40;;;1.20;;
13720;SDS011;6932;51.438;5.470;2023-03-31T19:09:34;1.77;;;0.97;;
13720;SDS011;6932;51.438;5.470;2023-03-31T19:26:44;2.70;;;1.30;;
13720;SDS011;6932;51.438;5.470;2023-03-31T19:29:10;3.23;;;1.40;;
13720;SDS011;6932;51.438;5.470;2023-03-31T19:31:36;3.27;;;1.30;;
13720;SDS011;6932;51.438;5.470;2023-03-31T19:34:05;2.13;;;1.20;;
13720;SDS011;6932;51.438;5.470;2023-03-31T19:36:35;2.57;;;1.10;;
13720;SDS011;6932;51.438;5.470;2023-03-31T19:39:01;3.67;;;1.10;;
13720;SDS011;6932;51.438;5.470;2023-03-31T19:41:28;1.20;;;0.90;;
13720;SDS011;6932;51.438;5.470;2023-03-31T19:43:54;3.03;;;1.27;;
13720;SDS011;6932;51.438;5.470;2023-03-31T19:50:10;2.27;;;1.10;;
13720;SDS011;6932;51.438;5.470;2023-03-31T19:52:37;4.20;;;1.60;;
13720;SDS011;6932;51.438;5.470;2023-03-31T19:55:03;4.30;;;1.40;;
13720;SDS011;6932;51.438;5.470;2023-03-31T19:57:29;2.83;;;1.33;;
13720;SDS011;6932;51.438;5.470;2023-03-31T19:59:55;3.07;;;1.30;;
13720;SDS011;6932;51.438;5.470;2023-03-31T20:02:20;3.30;;;1.43;;
13720;SDS011;6932;51.438;5.470;2023-03-31T20:04:47;3.40;;;1.23;;
13720;SDS011;6932;51.438;5.470;2023-03-31T20:07:13;3.40;;;1.30;;
13720;SDS011;6932;51.438;5.470;2023-03-31T20:17:09;2.53;;;1.13;;
13720;SDS011;6932;51.438;5.470;2023-03-31T20:19:37;4.40;;;1.40;;
13720;SDS011;6932;51.438;5.470;2023-03-31T20:22:03;5.47;;;1.70;;
13720;SDS011;6932;51.438;5.470;2023-03-31T20:24:29;4.80;;;1.57;;
13720;SDS011;6932;51.438;5.470;2023-03-31T20:26:55;5.73;;;1.80;;
13720;SDS011;6932;51.438;5.470;2023-03-31T20:29:22;3.17;;;1.50;;
13720;SDS011;6932;51.438;5.470;2023-03-31T20:31:48;6.47;;;1.60;;
13720;SDS011;6932;51.438;5.470;2023-03-31T20:34:15;3.57;;;1.40;;
13720;SDS011;6932;51.438;5.470;2023-03-31T20:47:54;4.37;;;1.50;;
13720;SDS011;6932;51.438;5.470;2023-03-31T20:50:20;6.13;;;1.87;;
13720;SDS011;6932;51.438;5.470;2023-03-31T20:52:46;3.67;;;1.60;;
13720;SDS011;6932;51.438;5.470;2023-03-31T20:55:13;4.13;;;1.57;;
13720;SDS011;6932;51.438;5.470;2023-03-31T20:57:39;4.30;;;1.40;;
13720;SDS011;6932;51.438;5.470;2023-03-31T21:00:05;4.67;;;1.50;;
13720;SDS011;6932;51.438;5.470;2023-03-31T21:02:31;4.83;;;1.80;;
13720;SDS011;6932;51.438;5.470;2023-03-31T21:04:57;4.90;;;1.70;;
13720;SDS011;6932;51.438;5.470;2023-03-31T21:25:58;3.73;;;1.33;;
13720;SDS011;6932;51.438;5.470;2023-03-31T21:28:27;5.87;;;1.83;;
13720;SDS011;6932;51.438;5.470;2023-03-31T21:30:58;4.83;;;1.50;;
13720;SDS011;6932;51.438;5.470;2023-03-31T21:33:27;4.17;;;1.63;;
13720;SDS011;6932;51.438;5.470;2023-03-31T21:35:54;3.77;;;1.40;;
13720;SDS011;6932;51.438;5.470;2023-03-31T21:38:21;3.03;;;1.33;;
13720;SDS011;6932;51.438;5.470;2023-03-31T21:40:48;4.57;;;1.50;;
13720;SDS011;6932;51.438;5.470;2023-03-31T21:43:16;5.37;;;1.60;;
13720;SDS011;6932;51.438;5.470;2023-03-31T21:45:43;4.30;;;1.30;;
13720;SDS011;6932;51.438;5.470;2023-03-31T21:48:10;3.27;;;1.30;;
13720;SDS011;6932;51.438;5.470;2023-03-31T21:50:37;4.77;;;1.53;;
13720;SDS011;6932;51.438;5.470;2023-03-31T21:53:05;5.03;;;1.53;;
13720;SDS011;6932;51.438;5.470;2023-03-31T21:55:34;4.43;;;1.53;;
13720;SDS011;6932;51.438;5.470;2023-03-31T21:58:02;4.70;;;1.50;;
13720;SDS011;6932;51.438;5.470;2023-03-31T22:11:13;6.03;;;1.30;;
13720;SDS011;6932;51.438;5.470;2023-03-31T22:13:39;3.07;;;1.43;;
13720;SDS011;6932;51.438;5.470;2023-03-31T22:16:13;5.13;;;1.40;;
13720;SDS011;6932;51.438;5.470;2023-03-31T22:18:45;3.07;;;1.30;;
13720;SDS011;6932;51.438;5.470;2023-03-31T22:24:54;3.70;;;1.20;;
13720;SDS011;6932;51.438;5.470;2023-03-31T22:30:11;1.93;;;1.10;;
13720;SDS011;6932;51.438;5.470;2023-03-31T22:32:37;2.87;;;1.10;;
13720;SDS011;6932;51.438;5.470;2023-03-31T22:35:03;4.67;;;1.40;;
13720;SDS011;6932;51.438;5.470;2023-03-31T22:37:29;2.93;;;1.23;;
13720;SDS011;6932;51.438;5.470;2023-03-31T22:39:55;3.27;;;1.17;;
13720;SDS011;6932;51.438;5.470;2023-03-31T22:42:21;3.10;;;1.23;;
13720;SDS011;6932;51.438;5.470;2023-03-31T22:48:27;3.10;;;1.10;;
13720;SDS011;6932;51.438;5.470;2023-03-31T22:50:53;1.83;;;1.03;;
13720;SDS011;6932;51.438;5.470;2023-03-31T22:53:19;3.40;;;1.20;;
13720;SDS011;6932;51.438;5.470;2023-03-31T22:55:45;2.77;;;1.00;;
13720;SDS011;6932;51.438;5.470;2023-03-31T22:58:11;1.43;;;0.90;;
13720;SDS011;6932;51.438;5.470;2023-03-31T23:00:38;2.87;;;1.20;;
13720;SDS011;6932;51.438;5.470;2023-03-31T23:03:04;2.50;;;1.30;;
13720;SDS011;6932;51.438;5.470;2023-03-31T23:05:30;1.30;;;1.00;;
13720;SDS011;6932;51.438;5.470;2023-03-31T23:07:56;2.43;;;1.10;;
13720;SDS011;6932;51.438;5.470;2023-03-31T23:10:22;3.47;;;1.40;;
13720;SDS011;6932;51.438;5.470;2023-03-31T23:12:48;3.53;;;1.00;;
13720;SDS011;6932;51.438;5.470;2023-03-31T23:15:14;4.70;;;1.37;;
13720;SDS011;6932;51.438;5.470;2023-03-31T23:17:39;2.27;;;1.10;;
13720;SDS011;6932;51.438;5.470;2023-03-31T23:20:05;3.73;;;1.30;;
13720;SDS011;6932;51.438;5.470;2023-03-31T23:22:32;3.93;;;1.20;;
13720;SDS011;6932;51.438;5.470;2023-03-31T23:24:58;2.13;;;1.00;;
13720;SDS011;6932;51.438;5.470;2023-03-31T23:27:24;3.70;;;1.27;;
13720;SDS011;6932;51.438;5.470;2023-03-31T23:37:21;2.83;;;1.10;;
13720;SDS011;6932;51.438;5.470;2023-03-31T23:39:47;5.07;;;1.30;;
13720;SDS011;6932;51.438;5.470;2023-03-31T23:42:13;1.17;;;0.90;;
13720;SDS011;6932;51.438;5.470;2023-03-31T23:44:43;4.17;;;1.30;;
13720;SDS011;6932;51.438;5.470;2023-03-31T23:50:50;2.97;;;1.10;;
13720;SDS011;6932;51.438;5.470;2023-03-31T23:53:16;1.93;;;1.00;;
13720;SDS011;6932;51.438;5.470;2023-03-31T23:55:41;2.87;;;1.20;;
13720;SDS011;6932;51.438;5.470;2023-03-31T23:58:07;3.27;;;1.20;;
